sensor_id;sensor_type;location;lat;lon;timestamp;temperature;humidity
18805;DHT22;9530;48.930;9.526;2022-07-29T00:01:35;17.80;99.90
18805;DHT22;9530;48.930;9.526;2022-07-29T00:04:02;17.80;99.90
18805;DHT22;9530;48.930;9.526;2022-07-29T00:06:30;17.80;99.90
18805;DHT22;9530;48.930;9.526;2022-07-29T00:08:57;17.70;99.90
18805;DHT22;9530;48.930;9.526;2022-07-29T00:11:23;17.70;99.90
18805;DHT22;9530;48.930;9.526;2022-07-29T00:13:50;17.70;99.90
18805;DHT22;9530;48.930;9.526;2022-07-29T00:16:17;17.70;99.90
18805;DHT22;9530;48.930;9.526;2022-07-29T00:18:43;17.70;99.90
18805;DHT22;9530;48.930;9.526;2022-07-29T00:21:10;17.70;99.90
18805;DHT22;9530;48.930;9.526;2022-07-29T00:23:38;17.50;99.90
18805;DHT22;9530;48.930;9.526;2022-07-29T00:26:05;17.40;99.90
18805;DHT22;9530;48.930;9.526;2022-07-29T00:28:31;17.40;99.90
18805;DHT22;9530;48.930;9.526;2022-07-29T00:30:58;17.50;99.90
18805;DHT22;9530;48.930;9.526;2022-07-29T00:33:25;17.40;99.90
18805;DHT22;9530;48.930;9.526;2022-07-29T00:35:52;17.40;99.90
18805;DHT22;9530;48.930;9.526;2022-07-29T00:38:19;17.50;99.90
18805;DHT22;9530;48.930;9.526;2022-07-29T00:40:48;17.50;99.90
18805;DHT22;9530;48.930;9.526;2022-07-29T00:43:14;17.60;99.90
18805;DHT22;9530;48.930;9.526;2022-07-29T00:45:41;17.60;99.90
18805;DHT22;9530;48.930;9.526;2022-07-29T00:48:08;17.60;99.90
18805;DHT22;9530;48.930;9.526;2022-07-29T00:50:35;17.60;99.90
18805;DHT22;9530;48.930;9.526;2022-07-29T00:53:03;17.60;99.90
18805;DHT22;9530;48.930;9.526;2022-07-29T00:55:30;17.50;99.90
18805;DHT22;9530;48.930;9.526;2022-07-29T00:57:59;17.50;99.90
18805;DHT22;9530;48.930;9.526;2022-07-29T01:00:27;17.40;99.90
18805;DHT22;9530;48.930;9.526;2022-07-29T01:02:54;17.40;99.90
18805;DHT22;9530;48.930;9.526;2022-07-29T01:05:23;17.30;99.90
18805;DHT22;9530;48.930;9.526;2022-07-29T01:07:52;17.30;99.90
18805;DHT22;9530;48.930;9.526;2022-07-29T01:10:20;17.20;99.90
18805;DHT22;9530;48.930;9.526;2022-07-29T01:12:49;17.20;99.90
18805;DHT22;9530;48.930;9.526;2022-07-29T01:15:18;17.20;99.90
18805;DHT22;9530;48.930;9.526;2022-07-29T01:17:52;17.10;99.90
18805;DHT22;9530;48.930;9.526;2022-07-29T01:20:25;17.00;99.90
18805;DHT22;9530;48.930;9.526;2022-07-29T01:23:13;17.00;99.90
18805;DHT22;9530;48.930;9.526;2022-07-29T01:26:00;17.10;99.90
18805;DHT22;9530;48.930;9.526;2022-07-29T01:28:40;17.10;99.90
18805;DHT22;9530;48.930;9.526;2022-07-29T01:31:11;17.00;99.90
18805;DHT22;9530;48.930;9.526;2022-07-29T01:33:43;17.00;99.90
18805;DHT22;9530;48.930;9.526;2022-07-29T01:36:20;17.00;99.90
18805;DHT22;9530;48.930;9.526;2022-07-29T01:38:54;17.00;99.90
18805;DHT22;9530;48.930;9.526;2022-07-29T01:41:25;16.90;99.90
18805;DHT22;9530;48.930;9.526;2022-07-29T01:43:57;17.00;99.90
18805;DHT22;9530;48.930;9.526;2022-07-29T01:46:31;16.90;99.90
18805;DHT22;9530;48.930;9.526;2022-07-29T01:49:02;16.90;99.90
18805;DHT22;9530;48.930;9.526;2022-07-29T01:51:38;16.90;99.90
18805;DHT22;9530;48.930;9.526;2022-07-29T01:54:10;16.90;99.90
18805;DHT22;9530;48.930;9.526;2022-07-29T01:56:39;16.90;99.90
18805;DHT22;9530;48.930;9.526;2022-07-29T01:59:08;16.80;99.90
18805;DHT22;9530;48.930;9.526;2022-07-29T02:01:36;16.70;99.90
18805;DHT22;9530;48.930;9.526;2022-07-29T02:04:05;16.70;99.90
18805;DHT22;9530;48.930;9.526;2022-07-29T02:06:34;16.60;99.90
18805;DHT22;9530;48.930;9.526;2022-07-29T02:09:04;16.60;99.90
18805;DHT22;9530;48.930;9.526;2022-07-29T02:11:33;16.50;99.90
18805;DHT22;9530;48.930;9.526;2022-07-29T02:14:01;16.50;99.90
18805;DHT22;9530;48.930;9.526;2022-07-29T02:16:32;16.40;99.90
18805;DHT22;9530;48.930;9.526;2022-07-29T02:19:01;16.40;99.90
18805;DHT22;9530;48.930;9.526;2022-07-29T02:21:30;16.50;99.90
18805;DHT22;9530;48.930;9.526;2022-07-29T02:23:59;16.50;99.90
18805;DHT22;9530;48.930;9.526;2022-07-29T02:26:28;16.50;99.90
18805;DHT22;9530;48.930;9.526;2022-07-29T02:28:57;16.50;99.90
18805;DHT22;9530;48.930;9.526;2022-07-29T02:31:27;16.40;99.90
18805;DHT22;9530;48.930;9.526;2022-07-29T02:33:57;16.50;99.90
18805;DHT22;9530;48.930;9.526;2022-07-29T02:36:25;16.40;99.90
18805;DHT22;9530;48.930;9.526;2022-07-29T02:38:52;16.50;99.90
18805;DHT22;9530;48.930;9.526;2022-07-29T02:41:26;16.40;99.90
18805;DHT22;9530;48.930;9.526;2022-07-29T02:43:57;16.40;99.90
18805;DHT22;9530;48.930;9.526;2022-07-29T02:46:29;16.50;99.90
18805;DHT22;9530;48.930;9.526;2022-07-29T02:49:03;16.50;99.90
18805;DHT22;9530;48.930;9.526;2022-07-29T02:51:39;16.40;99.90
18805;DHT22;9530;48.930;9.526;2022-07-29T02:54:07;16.40;99.90
18805;DHT22;9530;48.930;9.526;2022-07-29T02:56:36;16.40;99.90
18805;DHT22;9530;48.930;9.526;2022-07-29T02:59:07;16.30;99.90
18805;DHT22;9530;48.930;9.526;2022-07-29T03:01:40;16.30;99.90
18805;DHT22;9530;48.930;9.526;2022-07-29T03:04:09;16.30;99.90
18805;DHT22;9530;48.930;9.526;2022-07-29T03:06:38;16.20;99.90
18805;DHT22;9530;48.930;9.526;2022-07-29T03:09:06;16.20;99.90
18805;DHT22;9530;48.930;9.526;2022-07-29T03:11:34;16.10;99.90
18805;DHT22;9530;48.930;9.526;2022-07-29T03:14:01;16.00;99.90
18805;DHT22;9530;48.930;9.526;2022-07-29T03:16:28;16.00;99.90
18805;DHT22;9530;48.930;9.526;2022-07-29T03:18:55;16.00;99.90
18805;DHT22;9530;48.930;9.526;2022-07-29T03:21:23;16.00;99.90
18805;DHT22;9530;48.930;9.526;2022-07-29T03:23:50;16.00;99.90
18805;DHT22;9530;48.930;9.526;2022-07-29T03:26:17;15.90;99.90
18805;DHT22;9530;48.930;9.526;2022-07-29T03:28:45;15.90;99.90
18805;DHT22;9530;48.930;9.526;2022-07-29T03:31:11;15.80;99.90
18805;DHT22;9530;48.930;9.526;2022-07-29T03:33:38;15.90;99.90
18805;DHT22;9530;48.930;9.526;2022-07-29T03:36:05;15.90;99.90
18805;DHT22;9530;48.930;9.526;2022-07-29T03:38:35;16.00;99.90
18805;DHT22;9530;48.930;9.526;2022-07-29T03:41:05;15.90;99.90
18805;DHT22;9530;48.930;9.526;2022-07-29T03:43:35;15.90;99.90
18805;DHT22;9530;48.930;9.526;2022-07-29T03:46:04;16.00;99.90
18805;DHT22;9530;48.930;9.526;2022-07-29T03:48:33;16.00;99.90
18805;DHT22;9530;48.930;9.526;2022-07-29T03:51:02;16.00;99.90
18805;DHT22;9530;48.930;9.526;2022-07-29T03:53:28;16.10;99.90
18805;DHT22;9530;48.930;9.526;2022-07-29T03:55:59;16.10;99.90
18805;DHT22;9530;48.930;9.526;2022-07-29T03:58:27;16.00;99.90
18805;DHT22;9530;48.930;9.526;2022-07-29T04:00:54;15.90;99.90
18805;DHT22;9530;48.930;9.526;2022-07-29T04:03:22;15.90;99.90
18805;DHT22;9530;48.930;9.526;2022-07-29T04:05:58;16.00;99.90
18805;DHT22;9530;48.930;9.526;2022-07-29T04:08:25;16.00;99.90
18805;DHT22;9530;48.930;9.526;2022-07-29T04:10:52;16.20;99.90
18805;DHT22;9530;48.930;9.526;2022-07-29T04:13:20;16.20;99.90
18805;DHT22;9530;48.930;9.526;2022-07-29T04:15:47;16.10;99.90
18805;DHT22;9530;48.930;9.526;2022-07-29T04:18:14;16.20;99.90
18805;DHT22;9530;48.930;9.526;2022-07-29T04:20:40;16.20;99.90
18805;DHT22;9530;48.930;9.526;2022-07-29T04:23:07;16.20;99.90
18805;DHT22;9530;48.930;9.526;2022-07-29T04:25:37;16.20;99.90
18805;DHT22;9530;48.930;9.526;2022-07-29T04:28:03;16.30;99.90
18805;DHT22;9530;48.930;9.526;2022-07-29T04:30:32;16.30;99.90
18805;DHT22;9530;48.930;9.526;2022-07-29T04:33:00;16.20;99.90
18805;DHT22;9530;48.930;9.526;2022-07-29T04:35:27;16.30;99.90
18805;DHT22;9530;48.930;9.526;2022-07-29T04:37:53;16.40;99.90
18805;DHT22;9530;48.930;9.526;2022-07-29T04:40:20;16.40;99.90
18805;DHT22;9530;48.930;9.526;2022-07-29T04:42:47;16.50;99.90
18805;DHT22;9530;48.930;9.526;2022-07-29T04:45:14;16.50;99.90
18805;DHT22;9530;48.930;9.526;2022-07-29T04:47:42;16.60;99.90
18805;DHT22;9530;48.930;9.526;2022-07-29T04:50:09;16.60;99.90
18805;DHT22;9530;48.930;9.526;2022-07-29T04:52:36;16.50;99.90
18805;DHT22;9530;48.930;9.526;2022-07-29T04:55:04;16.60;99.90
18805;DHT22;9530;48.930;9.526;2022-07-29T04:57:31;16.60;99.90
18805;DHT22;9530;48.930;9.526;2022-07-29T04:59:58;16.70;99.90
18805;DHT22;9530;48.930;9.526;2022-07-29T05:02:24;16.80;99.90
18805;DHT22;9530;48.930;9.526;2022-07-29T05:04:53;16.80;99.90
18805;DHT22;9530;48.930;9.526;2022-07-29T05:07:19;16.80;99.90
18805;DHT22;9530;48.930;9.526;2022-07-29T05:09:46;16.90;99.90
18805;DHT22;9530;48.930;9.526;2022-07-29T05:12:13;17.00;99.90
18805;DHT22;9530;48.930;9.526;2022-07-29T05:14:39;17.10;99.90
18805;DHT22;9530;48.930;9.526;2022-07-29T05:17:06;17.20;99.90
18805;DHT22;9530;48.930;9.526;2022-07-29T05:19:33;17.30;99.90
18805;DHT22;9530;48.930;9.526;2022-07-29T05:22:01;17.40;99.90
18805;DHT22;9530;48.930;9.526;2022-07-29T05:24:28;17.60;99.90
18805;DHT22;9530;48.930;9.526;2022-07-29T05:26:54;17.70;99.90
18805;DHT22;9530;48.930;9.526;2022-07-29T05:29:21;17.70;99.90
18805;DHT22;9530;48.930;9.526;2022-07-29T05:31:48;17.70;99.90
18805;DHT22;9530;48.930;9.526;2022-07-29T05:34:16;17.80;99.90
18805;DHT22;9530;48.930;9.526;2022-07-29T05:36:44;17.90;99.90
18805;DHT22;9530;48.930;9.526;2022-07-29T05:39:12;18.00;99.90
18805;DHT22;9530;48.930;9.526;2022-07-29T05:41:39;18.20;99.90
18805;DHT22;9530;48.930;9.526;2022-07-29T05:44:05;18.50;99.90
18805;DHT22;9530;48.930;9.526;2022-07-29T05:46:32;18.70;99.90
18805;DHT22;9530;48.930;9.526;2022-07-29T05:48:59;19.00;99.90
18805;DHT22;9530;48.930;9.526;2022-07-29T05:51:26;19.10;99.90
18805;DHT22;9530;48.930;9.526;2022-07-29T05:53:52;19.30;99.90
18805;DHT22;9530;48.930;9.526;2022-07-29T05:56:20;19.40;99.90
18805;DHT22;9530;48.930;9.526;2022-07-29T05:58:47;19.60;99.90
18805;DHT22;9530;48.930;9.526;2022-07-29T06:01:14;19.70;99.90
18805;DHT22;9530;48.930;9.526;2022-07-29T06:03:41;19.80;99.90
18805;DHT22;9530;48.930;9.526;2022-07-29T06:06:08;19.90;99.90
18805;DHT22;9530;48.930;9.526;2022-07-29T06:08:36;20.10;99.90
18805;DHT22;9530;48.930;9.526;2022-07-29T06:11:03;20.30;99.90
18805;DHT22;9530;48.930;9.526;2022-07-29T06:13:32;20.40;99.90
18805;DHT22;9530;48.930;9.526;2022-07-29T06:15:58;20.50;99.90
18805;DHT22;9530;48.930;9.526;2022-07-29T06:18:25;20.70;99.90
18805;DHT22;9530;48.930;9.526;2022-07-29T06:20:52;20.90;99.90
18805;DHT22;9530;48.930;9.526;2022-07-29T06:23:20;21.20;99.90
18805;DHT22;9530;48.930;9.526;2022-07-29T06:25:47;21.50;99.90
18805;DHT22;9530;48.930;9.526;2022-07-29T06:28:14;21.70;99.90
18805;DHT22;9530;48.930;9.526;2022-07-29T06:30:42;22.00;99.90
18805;DHT22;9530;48.930;9.526;2022-07-29T06:33:08;22.10;99.90
18805;DHT22;9530;48.930;9.526;2022-07-29T06:35:36;22.30;99.90
18805;DHT22;9530;48.930;9.526;2022-07-29T06:38:04;22.40;99.90
18805;DHT22;9530;48.930;9.526;2022-07-29T06:40:31;22.50;99.90
18805;DHT22;9530;48.930;9.526;2022-07-29T06:43:15;22.60;99.90
18805;DHT22;9530;48.930;9.526;2022-07-29T06:45:43;22.60;99.90
18805;DHT22;9530;48.930;9.526;2022-07-29T06:48:09;22.70;99.90
18805;DHT22;9530;48.930;9.526;2022-07-29T06:50:36;22.90;99.90
18805;DHT22;9530;48.930;9.526;2022-07-29T06:53:03;22.90;99.90
18805;DHT22;9530;48.930;9.526;2022-07-29T06:55:30;23.00;99.90
18805;DHT22;9530;48.930;9.526;2022-07-29T06:57:56;23.00;99.90
18805;DHT22;9530;48.930;9.526;2022-07-29T07:00:23;23.10;99.90
18805;DHT22;9530;48.930;9.526;2022-07-29T07:02:51;23.20;99.90
18805;DHT22;9530;48.930;9.526;2022-07-29T07:05:18;23.20;99.90
18805;DHT22;9530;48.930;9.526;2022-07-29T07:07:44;23.30;99.90
18805;DHT22;9530;48.930;9.526;2022-07-29T07:10:11;23.30;99.90
18805;DHT22;9530;48.930;9.526;2022-07-29T07:12:38;23.40;99.90
18805;DHT22;9530;48.930;9.526;2022-07-29T07:15:05;23.40;99.90
18805;DHT22;9530;48.930;9.526;2022-07-29T07:17:32;23.40;99.90
18805;DHT22;9530;48.930;9.526;2022-07-29T07:20:00;23.40;99.90
18805;DHT22;9530;48.930;9.526;2022-07-29T07:22:27;23.50;99.90
18805;DHT22;9530;48.930;9.526;2022-07-29T07:24:54;23.50;99.90
18805;DHT22;9530;48.930;9.526;2022-07-29T07:27:20;23.60;99.90
18805;DHT22;9530;48.930;9.526;2022-07-29T07:29:47;23.60;99.90
18805;DHT22;9530;48.930;9.526;2022-07-29T07:32:14;23.80;99.90
18805;DHT22;9530;48.930;9.526;2022-07-29T07:34:41;24.00;99.90
18805;DHT22;9530;48.930;9.526;2022-07-29T07:37:09;24.00;99.90
18805;DHT22;9530;48.930;9.526;2022-07-29T07:39:36;24.30;99.90
18805;DHT22;9530;48.930;9.526;2022-07-29T07:42:03;24.40;99.90
18805;DHT22;9530;48.930;9.526;2022-07-29T07:44:30;24.40;99.90
18805;DHT22;9530;48.930;9.526;2022-07-29T07:46:56;24.40;99.90
18805;DHT22;9530;48.930;9.526;2022-07-29T07:49:23;24.40;99.90
18805;DHT22;9530;48.930;9.526;2022-07-29T07:51:50;24.50;99.90
18805;DHT22;9530;48.930;9.526;2022-07-29T07:54:19;24.60;99.90
18805;DHT22;9530;48.930;9.526;2022-07-29T07:56:46;24.70;99.90
18805;DHT22;9530;48.930;9.526;2022-07-29T07:59:14;24.80;99.90
18805;DHT22;9530;48.930;9.526;2022-07-29T08:01:40;24.80;99.90
18805;DHT22;9530;48.930;9.526;2022-07-29T08:04:07;24.70;99.90
18805;DHT22;9530;48.930;9.526;2022-07-29T08:06:34;24.70;99.90
18805;DHT22;9530;48.930;9.526;2022-07-29T08:09:03;24.80;99.90
18805;DHT22;9530;48.930;9.526;2022-07-29T08:11:31;25.00;99.90
18805;DHT22;9530;48.930;9.526;2022-07-29T08:13:57;25.30;99.90
18805;DHT22;9530;48.930;9.526;2022-07-29T08:16:26;25.20;99.90
18805;DHT22;9530;48.930;9.526;2022-07-29T08:18:53;25.50;99.90
18805;DHT22;9530;48.930;9.526;2022-07-29T08:21:23;25.70;99.90
18805;DHT22;9530;48.930;9.526;2022-07-29T08:23:50;25.90;99.90
18805;DHT22;9530;48.930;9.526;2022-07-29T08:26:18;25.90;99.90
18805;DHT22;9530;48.930;9.526;2022-07-29T08:28:47;25.90;99.90
18805;DHT22;9530;48.930;9.526;2022-07-29T08:31:16;25.90;99.90
18805;DHT22;9530;48.930;9.526;2022-07-29T08:33:43;25.90;99.90
18805;DHT22;9530;48.930;9.526;2022-07-29T08:36:10;26.00;99.90
18805;DHT22;9530;48.930;9.526;2022-07-29T08:38:38;25.90;99.90
18805;DHT22;9530;48.930;9.526;2022-07-29T08:41:05;26.00;99.90
18805;DHT22;9530;48.930;9.526;2022-07-29T08:43:31;26.20;99.90
18805;DHT22;9530;48.930;9.526;2022-07-29T08:46:02;26.20;99.90
18805;DHT22;9530;48.930;9.526;2022-07-29T08:48:28;26.10;99.90
18805;DHT22;9530;48.930;9.526;2022-07-29T08:50:56;26.30;99.90
18805;DHT22;9530;48.930;9.526;2022-07-29T08:53:25;26.50;99.90
18805;DHT22;9530;48.930;9.526;2022-07-29T08:55:53;26.40;99.90
18805;DHT22;9530;48.930;9.526;2022-07-29T08:58:21;26.30;99.90
18805;DHT22;9530;48.930;9.526;2022-07-29T09:00:50;26.30;99.90
18805;DHT22;9530;48.930;9.526;2022-07-29T09:03:20;26.30;99.90
18805;DHT22;9530;48.930;9.526;2022-07-29T09:05:48;26.20;99.90
18805;DHT22;9530;48.930;9.526;2022-07-29T09:08:16;26.10;99.90
18805;DHT22;9530;48.930;9.526;2022-07-29T09:10:44;26.00;99.90
18805;DHT22;9530;48.930;9.526;2022-07-29T09:13:11;26.10;99.90
18805;DHT22;9530;48.930;9.526;2022-07-29T09:15:38;26.00;99.90
18805;DHT22;9530;48.930;9.526;2022-07-29T09:18:04;26.40;99.90
18805;DHT22;9530;48.930;9.526;2022-07-29T09:20:33;26.40;99.90
18805;DHT22;9530;48.930;9.526;2022-07-29T09:23:14;26.50;99.90
18805;DHT22;9530;48.930;9.526;2022-07-29T09:25:41;26.70;99.90
18805;DHT22;9530;48.930;9.526;2022-07-29T09:28:08;26.70;99.90
18805;DHT22;9530;48.930;9.526;2022-07-29T09:30:36;26.70;99.90
18805;DHT22;9530;48.930;9.526;2022-07-29T09:33:05;26.80;99.90
18805;DHT22;9530;48.930;9.526;2022-07-29T09:35:33;27.00;99.90
18805;DHT22;9530;48.930;9.526;2022-07-29T09:38:10;27.10;99.90
18805;DHT22;9530;48.930;9.526;2022-07-29T09:40:37;27.10;99.90
18805;DHT22;9530;48.930;9.526;2022-07-29T09:43:10;27.20;99.90
18805;DHT22;9530;48.930;9.526;2022-07-29T09:45:37;27.40;99.90
18805;DHT22;9530;48.930;9.526;2022-07-29T09:48:14;27.50;99.90
18805;DHT22;9530;48.930;9.526;2022-07-29T09:50:43;27.30;99.90
18805;DHT22;9530;48.930;9.526;2022-07-29T09:53:11;27.40;99.90
18805;DHT22;9530;48.930;9.526;2022-07-29T09:55:48;27.40;99.90
18805;DHT22;9530;48.930;9.526;2022-07-29T09:58:16;27.50;99.90
18805;DHT22;9530;48.930;9.526;2022-07-29T10:00:44;27.40;99.90
18805;DHT22;9530;48.930;9.526;2022-07-29T10:03:11;27.00;99.90
18805;DHT22;9530;48.930;9.526;2022-07-29T10:05:38;27.20;99.90
18805;DHT22;9530;48.930;9.526;2022-07-29T10:08:09;27.50;99.90
18805;DHT22;9530;48.930;9.526;2022-07-29T10:10:39;27.60;99.90
18805;DHT22;9530;48.930;9.526;2022-07-29T10:13:07;27.50;99.90
18805;DHT22;9530;48.930;9.526;2022-07-29T10:15:37;27.90;99.90
18805;DHT22;9530;48.930;9.526;2022-07-29T10:18:06;28.20;99.90
18805;DHT22;9530;48.930;9.526;2022-07-29T10:20:34;28.40;99.90
18805;DHT22;9530;48.930;9.526;2022-07-29T10:23:01;28.30;99.90
18805;DHT22;9530;48.930;9.526;2022-07-29T10:25:29;28.50;99.90
18805;DHT22;9530;48.930;9.526;2022-07-29T10:27:57;28.50;99.90
18805;DHT22;9530;48.930;9.526;2022-07-29T10:30:25;28.20;99.90
18805;DHT22;9530;48.930;9.526;2022-07-29T10:33:10;27.90;99.90
18805;DHT22;9530;48.930;9.526;2022-07-29T10:35:48;28.00;99.90
18805;DHT22;9530;48.930;9.526;2022-07-29T10:38:42;28.30;99.90
18805;DHT22;9530;48.930;9.526;2022-07-29T10:41:21;28.20;99.90
18805;DHT22;9530;48.930;9.526;2022-07-29T10:43:55;27.70;99.90
18805;DHT22;9530;48.930;9.526;2022-07-29T10:46:23;27.20;99.90
18805;DHT22;9530;48.930;9.526;2022-07-29T10:49:11;26.80;99.90
18805;DHT22;9530;48.930;9.526;2022-07-29T10:52:06;26.70;99.90
18805;DHT22;9530;48.930;9.526;2022-07-29T10:54:47;26.90;99.90
18805;DHT22;9530;48.930;9.526;2022-07-29T10:57:25;27.10;99.90
18805;DHT22;9530;48.930;9.526;2022-07-29T11:00:30;27.30;99.90
18805;DHT22;9530;48.930;9.526;2022-07-29T11:02:57;26.60;99.90
18805;DHT22;9530;48.930;9.526;2022-07-29T11:05:26;26.80;99.90
18805;DHT22;9530;48.930;9.526;2022-07-29T11:08:17;26.60;99.90
18805;DHT22;9530;48.930;9.526;2022-07-29T11:10:46;26.50;99.90
18805;DHT22;9530;48.930;9.526;2022-07-29T11:13:50;26.70;99.90
18805;DHT22;9530;48.930;9.526;2022-07-29T11:16:19;26.90;99.90
18805;DHT22;9530;48.930;9.526;2022-07-29T11:19:18;26.50;99.90
18805;DHT22;9530;48.930;9.526;2022-07-29T11:21:45;26.70;99.90
18805;DHT22;9530;48.930;9.526;2022-07-29T11:24:16;26.70;99.90
18805;DHT22;9530;48.930;9.526;2022-07-29T11:26:43;26.70;99.90
18805;DHT22;9530;48.930;9.526;2022-07-29T11:29:19;26.70;99.90
18805;DHT22;9530;48.930;9.526;2022-07-29T11:31:49;26.50;99.90
18805;DHT22;9530;48.930;9.526;2022-07-29T11:34:21;26.50;99.90
18805;DHT22;9530;48.930;9.526;2022-07-29T11:37:20;26.30;99.90
18805;DHT22;9530;48.930;9.526;2022-07-29T11:42:40;26.20;99.90
18805;DHT22;9530;48.930;9.526;2022-07-29T11:45:10;26.00;99.90
18805;DHT22;9530;48.930;9.526;2022-07-29T11:47:40;25.90;99.90
18805;DHT22;9530;48.930;9.526;2022-07-29T11:50:09;25.80;99.90
18805;DHT22;9530;48.930;9.526;2022-07-29T11:52:37;25.60;99.90
18805;DHT22;9530;48.930;9.526;2022-07-29T11:55:09;25.70;99.90
18805;DHT22;9530;48.930;9.526;2022-07-29T11:57:36;25.60;99.90
18805;DHT22;9530;48.930;9.526;2022-07-29T12:00:05;25.60;99.90
18805;DHT22;9530;48.930;9.526;2022-07-29T12:02:42;25.50;99.90
18805;DHT22;9530;48.930;9.526;2022-07-29T12:05:10;25.60;99.90
18805;DHT22;9530;48.930;9.526;2022-07-29T12:07:38;25.70;99.90
18805;DHT22;9530;48.930;9.526;2022-07-29T12:10:06;25.90;99.90
18805;DHT22;9530;48.930;9.526;2022-07-29T12:12:33;26.00;99.90
18805;DHT22;9530;48.930;9.526;2022-07-29T12:15:14;26.00;99.90
18805;DHT22;9530;48.930;9.526;2022-07-29T12:17:43;26.20;99.90
18805;DHT22;9530;48.930;9.526;2022-07-29T12:20:10;25.90;99.90
18805;DHT22;9530;48.930;9.526;2022-07-29T12:22:40;25.80;99.90
18805;DHT22;9530;48.930;9.526;2022-07-29T12:25:11;25.60;99.90
18805;DHT22;9530;48.930;9.526;2022-07-29T12:27:40;25.40;99.90
18805;DHT22;9530;48.930;9.526;2022-07-29T12:30:10;25.70;99.90
18805;DHT22;9530;48.930;9.526;2022-07-29T12:32:38;25.70;99.90
18805;DHT22;9530;48.930;9.526;2022-07-29T12:35:09;25.70;99.90
18805;DHT22;9530;48.930;9.526;2022-07-29T12:37:37;26.10;99.90
18805;DHT22;9530;48.930;9.526;2022-07-29T12:40:06;25.80;99.90
18805;DHT22;9530;48.930;9.526;2022-07-29T12:42:33;25.60;99.90
18805;DHT22;9530;48.930;9.526;2022-07-29T12:45:00;25.50;99.90
18805;DHT22;9530;48.930;9.526;2022-07-29T12:47:28;25.70;99.90
18805;DHT22;9530;48.930;9.526;2022-07-29T12:50:09;25.80;99.90
18805;DHT22;9530;48.930;9.526;2022-07-29T12:52:37;26.10;99.90
18805;DHT22;9530;48.930;9.526;2022-07-29T12:55:04;26.10;99.90
18805;DHT22;9530;48.930;9.526;2022-07-29T12:57:31;26.70;99.90
18805;DHT22;9530;48.930;9.526;2022-07-29T13:00:09;26.60;99.90
18805;DHT22;9530;48.930;9.526;2022-07-29T13:02:36;26.80;99.90
18805;DHT22;9530;48.930;9.526;2022-07-29T13:05:05;26.70;99.90
18805;DHT22;9530;48.930;9.526;2022-07-29T13:07:35;26.80;99.90
18805;DHT22;9530;48.930;9.526;2022-07-29T13:10:14;26.90;99.90
18805;DHT22;9530;48.930;9.526;2022-07-29T13:13:03;26.80;99.90
18805;DHT22;9530;48.930;9.526;2022-07-29T13:15:30;26.70;99.90
18805;DHT22;9530;48.930;9.526;2022-07-29T13:17:57;26.60;99.90
18805;DHT22;9530;48.930;9.526;2022-07-29T13:20:25;26.70;99.90
18805;DHT22;9530;48.930;9.526;2022-07-29T13:22:54;26.70;99.90
18805;DHT22;9530;48.930;9.526;2022-07-29T13:25:24;26.70;99.90
18805;DHT22;9530;48.930;9.526;2022-07-29T13:27:51;27.00;99.90
18805;DHT22;9530;48.930;9.526;2022-07-29T13:30:20;27.00;99.90
18805;DHT22;9530;48.930;9.526;2022-07-29T13:32:47;27.10;99.90
18805;DHT22;9530;48.930;9.526;2022-07-29T13:35:14;26.80;99.90
18805;DHT22;9530;48.930;9.526;2022-07-29T13:37:40;26.80;99.90
18805;DHT22;9530;48.930;9.526;2022-07-29T13:40:10;26.70;99.90
18805;DHT22;9530;48.930;9.526;2022-07-29T13:42:37;26.40;99.90
18805;DHT22;9530;48.930;9.526;2022-07-29T13:45:05;26.40;99.90
18805;DHT22;9530;48.930;9.526;2022-07-29T13:47:32;26.00;99.90
18805;DHT22;9530;48.930;9.526;2022-07-29T13:49:59;25.90;99.90
18805;DHT22;9530;48.930;9.526;2022-07-29T13:52:26;25.60;99.90
18805;DHT22;9530;48.930;9.526;2022-07-29T13:54:53;25.50;99.90
18805;DHT22;9530;48.930;9.526;2022-07-29T13:57:21;25.30;99.90
18805;DHT22;9530;48.930;9.526;2022-07-29T13:59:48;25.20;99.90
18805;DHT22;9530;48.930;9.526;2022-07-29T14:02:16;25.20;99.90
18805;DHT22;9530;48.930;9.526;2022-07-29T14:04:43;25.10;99.90
18805;DHT22;9530;48.930;9.526;2022-07-29T14:07:10;25.20;99.90
18805;DHT22;9530;48.930;9.526;2022-07-29T14:09:38;25.20;99.90
18805;DHT22;9530;48.930;9.526;2022-07-29T14:12:05;25.10;99.90
18805;DHT22;9530;48.930;9.526;2022-07-29T14:14:33;25.10;99.90
18805;DHT22;9530;48.930;9.526;2022-07-29T14:17:01;25.10;99.90
18805;DHT22;9530;48.930;9.526;2022-07-29T14:19:28;25.10;99.90
18805;DHT22;9530;48.930;9.526;2022-07-29T14:21:55;25.20;99.90
18805;DHT22;9530;48.930;9.526;2022-07-29T14:24:21;25.20;99.90
18805;DHT22;9530;48.930;9.526;2022-07-29T14:26:48;25.40;99.90
18805;DHT22;9530;48.930;9.526;2022-07-29T14:29:15;25.50;99.90
18805;DHT22;9530;48.930;9.526;2022-07-29T14:31:43;25.30;99.90
18805;DHT22;9530;48.930;9.526;2022-07-29T14:34:09;25.30;99.90
18805;DHT22;9530;48.930;9.526;2022-07-29T14:36:36;25.30;99.90
18805;DHT22;9530;48.930;9.526;2022-07-29T14:39:03;25.20;99.90
18805;DHT22;9530;48.930;9.526;2022-07-29T14:41:30;25.10;99.90
18805;DHT22;9530;48.930;9.526;2022-07-29T14:43:56;25.00;99.90
18805;DHT22;9530;48.930;9.526;2022-07-29T14:46:25;24.90;99.90
18805;DHT22;9530;48.930;9.526;2022-07-29T14:48:53;24.90;99.90
18805;DHT22;9530;48.930;9.526;2022-07-29T14:51:20;24.80;99.90
18805;DHT22;9530;48.930;9.526;2022-07-29T14:53:47;25.00;99.90
18805;DHT22;9530;48.930;9.526;2022-07-29T14:56:14;25.10;99.90
18805;DHT22;9530;48.930;9.526;2022-07-29T14:58:40;25.10;99.90
18805;DHT22;9530;48.930;9.526;2022-07-29T15:01:07;25.00;99.90
18805;DHT22;9530;48.930;9.526;2022-07-29T15:03:34;24.90;99.90
18805;DHT22;9530;48.930;9.526;2022-07-29T15:06:02;24.90;99.90
18805;DHT22;9530;48.930;9.526;2022-07-29T15:08:28;24.80;99.90
18805;DHT22;9530;48.930;9.526;2022-07-29T15:10:56;24.90;99.90
18805;DHT22;9530;48.930;9.526;2022-07-29T15:13:24;24.80;99.90
18805;DHT22;9530;48.930;9.526;2022-07-29T15:15:51;25.00;99.90
18805;DHT22;9530;48.930;9.526;2022-07-29T15:18:18;25.00;99.90
18805;DHT22;9530;48.930;9.526;2022-07-29T15:20:45;25.10;99.90
18805;DHT22;9530;48.930;9.526;2022-07-29T15:23:13;25.00;99.90
18805;DHT22;9530;48.930;9.526;2022-07-29T15:25:40;25.00;99.90
18805;DHT22;9530;48.930;9.526;2022-07-29T15:28:06;24.90;99.90
18805;DHT22;9530;48.930;9.526;2022-07-29T15:30:34;24.90;99.90
18805;DHT22;9530;48.930;9.526;2022-07-29T15:33:06;24.80;99.90
18805;DHT22;9530;48.930;9.526;2022-07-29T15:35:34;24.80;99.90
18805;DHT22;9530;48.930;9.526;2022-07-29T15:38:01;24.60;99.90
18805;DHT22;9530;48.930;9.526;2022-07-29T15:40:29;24.60;99.90
18805;DHT22;9530;48.930;9.526;2022-07-29T15:42:56;24.50;99.90
18805;DHT22;9530;48.930;9.526;2022-07-29T15:45:22;24.60;99.90
18805;DHT22;9530;48.930;9.526;2022-07-29T15:47:49;24.70;99.90
18805;DHT22;9530;48.930;9.526;2022-07-29T15:50:15;24.70;99.90
18805;DHT22;9530;48.930;9.526;2022-07-29T15:52:42;24.70;99.90
18805;DHT22;9530;48.930;9.526;2022-07-29T15:55:09;24.90;99.90
18805;DHT22;9530;48.930;9.526;2022-07-29T15:57:37;25.00;99.90
18805;DHT22;9530;48.930;9.526;2022-07-29T16:00:06;25.10;99.90